Time;durP1;ratioP1;P1;durP2;ratioP2;P2;SDS_P1;SDS_P2;PMS_P1;PMS_P2;Temp;Humidity;BMP_temperature;BMP_pressure;BME280_temperature;BME280_humidity;BME280_pressure;Samples;Min_cycle;Max_cycle;Signal;HPM_P1;HPM_P2
2023/11/09 00:02:56;;;;;;;3.40;0.90;;;10.90;88.70;;;;;;9169139;19;20085;-74
2023/11/09 00:06:04;;;;;;;1.38;1.10;;;10.90;88.70;;;;;;9163695;19;20028;-73
2023/11/09 00:09:11;;;;;;;4.28;1.27;;;10.90;88.70;;;;;;9167622;19;20011;-73
2023/11/09 00:12:16;;;;;;;1.77;0.90;;;10.90;88.70;;;;;;9165380;19;20859;-73
2023/11/09 00:15:25;;;;;;;1.17;0.88;;;11.00;88.80;;;;;;9167463;19;20021;-74
2023/11/09 00:18:31;;;;;;;1.98;0.90;;;10.90;88.70;;;;;;9165774;19;20018;-74
2023/11/09 00:21:41;;;;;;;2.10;1.00;;;10.90;88.70;;;;;;9165090;19;20029;-73
2023/11/09 00:24:47;;;;;;;2.40;0.95;;;10.90;88.80;;;;;;9166650;19;20011;-72
2023/11/09 00:27:54;;;;;;;1.13;1.00;;;10.90;88.80;;;;;;9167446;19;20026;-73
2023/11/09 00:31:00;;;;;;;2.22;1.00;;;11.00;88.90;;;;;;9163540;19;20014;-72
2023/11/09 00:34:09;;;;;;;1.10;1.00;;;11.00;88.90;;;;;;9167859;19;20078;-73
2023/11/09 00:37:17;;;;;;;1.27;1.10;;;11.00;88.90;;;;;;9167109;19;20512;-73
2023/11/09 00:40:25;;;;;;;2.25;1.05;;;11.00;89.00;;;;;;9161119;19;20014;-74
2023/11/09 00:43:32;;;;;;;1.90;0.90;;;11.00;88.90;;;;;;9166391;19;20019;-73
2023/11/09 00:46:40;;;;;;;1.10;1.00;;;11.00;89.00;;;;;;9164262;19;20014;-73
2023/11/09 00:49:45;;;;;;;2.20;0.90;;;11.00;89.00;;;;;;9160981;19;20010;-72
2023/11/09 00:52:55;;;;;;;1.23;0.93;;;11.00;88.90;;;;;;9165469;19;20022;-73
2023/11/09 00:56:01;;;;;;;3.95;1.05;;;11.00;88.90;;;;;;9165130;19;20556;-73
2023/11/09 00:59:09;;;;;;;3.30;0.70;;;11.00;88.90;;;;;;9163111;19;20014;-72
2023/11/09 01:02:14;;;;;;;1.45;0.80;;;11.00;89.00;;;;;;9164479;19;20025;-74
2023/11/09 01:05:22;;;;;;;1.45;0.90;;;11.00;89.00;;;;;;9164647;19;20022;-72
2023/11/09 01:08:30;;;;;;;1.00;0.77;;;11.00;90.00;;;;;;9163125;19;20014;-73
2023/11/09 01:11:40;;;;;;;1.17;0.82;;;11.00;89.00;;;;;;9162106;19;20024;-72
2023/11/09 01:14:45;;;;;;;2.17;1.20;;;11.10;89.10;;;;;;9164229;19;20023;-72
2023/11/09 01:18:03;;;;;;;0.95;0.82;;;11.00;89.10;;;;;;9160648;19;20483;-72
2023/11/09 01:21:09;;;;;;;1.35;1.10;;;11.10;89.20;;;;;;9162993;19;20023;-74
2023/11/09 01:24:27;;;;;;;0.75;0.75;;;11.10;89.70;;;;;;9164361;19;20106;-72
2023/11/09 01:27:32;;;;;;;1.42;0.95;;;11.10;89.20;;;;;;9161625;19;20014;-74
2023/11/09 01:30:40;;;;;;;2.42;0.80;;;11.10;89.10;;;;;;9161447;19;20014;-72
2023/11/09 01:33:45;;;;;;;1.30;1.20;;;11.10;89.80;;;;;;9163880;19;20479;-73
2023/11/09 01:36:53;;;;;;;1.13;1.00;;;11.10;89.20;;;;;;9161928;19;20017;-74
2023/11/09 01:40:02;;;;;;;0.82;0.82;;;11.10;89.20;;;;;;9159399;19;20030;-73
2023/11/09 01:43:14;;;;;;;1.30;0.85;;;11.10;89.30;;;;;;9159123;19;20015;-73
2023/11/09 01:46:21;;;;;;;0.88;0.82;;;11.10;89.30;;;;;;9163494;19;20131;-74
2023/11/09 01:49:30;;;;;;;2.53;1.27;;;11.10;89.30;;;;;;9160679;19;20026;-73
2023/11/09 01:52:36;;;;;;;1.23;0.80;;;11.10;89.30;;;;;;9158822;19;20028;-75
2023/11/09 01:55:46;;;;;;;1.10;1.00;;;11.10;89.30;;;;;;9161641;19;20029;-73
2023/11/09 01:58:53;;;;;;;2.08;1.20;;;11.10;89.30;;;;;;9161918;19;20019;-73
2023/11/09 02:02:02;;;;;;;0.73;0.70;;;11.10;89.30;;;;;;9162530;19;20022;-73
2023/11/09 02:05:09;;;;;;;1.15;0.98;;;11.10;89.40;;;;;;9160359;19;20026;-73
2023/11/09 02:08:17;;;;;;;0.70;0.70;;;11.10;89.30;;;;;;9158322;19;20038;-72
2023/11/09 02:11:25;;;;;;;1.38;0.90;;;11.10;89.40;;;;;;9159900;19;20023;-71
2023/11/09 02:14:33;;;;;;;0.85;0.85;;;11.10;89.40;;;;;;9161086;19;20007;-71
2023/11/09 02:17:39;;;;;;;3.88;0.98;;;11.20;89.50;;;;;;9160047;19;20068;-73
2023/11/09 02:20:48;;;;;;;2.38;0.60;;;11.20;89.50;;;;;;9162382;19;20653;-73
2023/11/09 02:23:57;;;;;;;0.82;0.50;;;11.20;89.30;;;;;;9160449;19;20086;-73
2023/11/09 02:27:11;;;;;;;1.65;0.80;;;11.20;89.30;;;;;;9154820;19;20360;-73
2023/11/09 02:30:16;;;;;;;1.33;0.68;;;11.20;89.40;;;;;;9169308;19;20481;-71
2023/11/09 02:33:24;;;;;;;0.77;0.60;;;11.20;89.40;;;;;;9167662;19;20617;-73
2023/11/09 02:36:30;;;;;;;0.82;0.70;;;11.20;89.30;;;;;;9170923;19;20014;-72
2023/11/09 02:39:37;;;;;;;0.68;0.52;;;11.20;89.30;;;;;;9162496;19;20648;-72
2023/11/09 02:42:46;;;;;;;1.48;0.80;;;11.20;89.40;;;;;;9169398;19;20052;-73
2023/11/09 02:45:57;;;;;;;2.17;0.70;;;11.20;89.40;;;;;;9171480;19;20762;-72
2023/11/09 02:49:03;;;;;;;0.50;0.50;;;11.20;89.40;;;;;;9168571;19;20071;-73
2023/11/09 02:52:10;;;;;;;0.70;0.70;;;11.20;89.40;;;;;;9168609;19;20068;-71
2023/11/09 02:55:16;;;;;;;0.60;0.60;;;11.20;89.40;;;;;;9168264;19;20362;-75
2023/11/09 02:58:26;;;;;;;2.67;0.65;;;11.20;89.50;;;;;;9167458;19;20014;-74
2023/11/09 03:01:31;;;;;;;0.50;0.50;;;11.20;89.50;;;;;;9169044;19;20049;-74
2023/11/09 03:04:39;;;;;;;0.82;0.57;;;11.10;89.40;;;;;;9169199;19;20025;-74
2023/11/09 03:07:45;;;;;;;4.65;0.70;;;11.20;89.50;;;;;;9169134;19;20029;-75
2023/11/09 03:10:55;;;;;;;1.05;0.70;;;11.20;89.50;;;;;;9169215;19;20014;-74
2023/11/09 03:14:03;;;;;;;1.42;0.60;;;11.20;89.50;;;;;;9168032;19;20025;-75
2023/11/09 03:17:10;;;;;;;0.70;0.70;;;11.20;89.50;;;;;;9169750;19;20143;-74
2023/11/09 03:20:16;;;;;;;3.42;1.00;;;11.20;89.60;;;;;;9166737;19;20050;-73
2023/11/09 03:23:23;;;;;;;1.13;0.80;;;11.20;89.50;;;;;;9169058;19;20014;-74
2023/11/09 03:26:29;;;;;;;0.88;0.73;;;11.20;89.50;;;;;;9163515;19;20018;-73
2023/11/09 03:29:39;;;;;;;0.90;0.68;;;11.20;89.50;;;;;;9167530;19;20503;-75
2023/11/09 03:32:46;;;;;;;1.00;0.77;;;11.20;89.60;;;;;;9166411;19;20595;-73
2023/11/09 03:35:54;;;;;;;0.93;0.90;;;11.20;89.60;;;;;;9166338;19;20011;-74
2023/11/09 03:38:59;;;;;;;0.88;0.88;;;11.20;89.60;;;;;;9164315;19;20591;-74
2023/11/09 03:42:08;;;;;;;1.17;0.80;;;11.20;89.60;;;;;;9163290;19;20015;-73
2023/11/09 03:45:16;;;;;;;0.63;0.63;;;11.20;89.70;;;;;;9166189;19;20014;-73
2023/11/09 03:48:24;;;;;;;0.80;0.80;;;11.20;89.70;;;;;;9167220;19;20022;-77
2023/11/09 03:51:30;;;;;;;1.15;0.80;;;11.20;89.70;;;;;;9163893;19;20086;-74
2023/11/09 03:54:37;;;;;;;1.25;0.80;;;11.20;89.70;;;;;;9167851;19;20010;-74
2023/11/09 03:57:43;;;;;;;0.88;0.73;;;11.20;89.70;;;;;;9166409;19;20037;-73
2023/11/09 04:00:54;;;;;;;3.38;0.82;;;11.20;89.70;;;;;;9166725;19;20014;-72
2023/11/09 04:03:59;;;;;;;2.67;0.90;;;11.20;89.70;;;;;;9168781;19;20046;-73
2023/11/09 04:07:07;;;;;;;1.02;0.90;;;11.20;89.70;;;;;;9165599;19;20010;-74
2023/11/09 04:10:16;;;;;;;0.98;0.90;;;11.20;89.80;;;;;;9165088;19;20030;-73
2023/11/09 04:13:24;;;;;;;1.25;0.98;;;11.20;89.80;;;;;;9165923;19;20025;-74
2023/11/09 04:16:34;;;;;;;1.45;0.73;;;11.20;89.80;;;;;;9167216;19;20058;-73
2023/11/09 04:19:42;;;;;;;1.27;0.90;;;11.20;89.70;;;;;;9162416;19;20010;-72
2023/11/09 04:22:48;;;;;;;1.70;1.10;;;11.20;89.70;;;;;;9165478;19;20036;-72
2023/11/09 04:25:56;;;;;;;1.10;0.80;;;11.20;89.80;;;;;;9164557;19;20021;-75
2023/11/09 04:29:02;;;;;;;6.82;1.27;;;11.20;89.70;;;;;;9164181;19;20018;-72
2023/11/09 04:32:13;;;;;;;1.10;1.00;;;11.20;89.80;;;;;;9163852;19;20024;-76
2023/11/09 04:35:20;;;;;;;3.72;1.02;;;11.20;89.80;;;;;;9167372;19;20041;-73
2023/11/09 04:38:30;;;;;;;0.80;0.80;;;11.20;89.80;;;;;;9163354;19;20010;-72
2023/11/09 04:41:35;;;;;;;1.02;1.00;;;11.20;89.90;;;;;;9161053;19;20036;-73
2023/11/09 04:44:42;;;;;;;1.20;1.10;;;11.20;89.90;;;;;;9166651;19;20011;-74
2023/11/09 04:47:55;;;;;;;1.10;1.00;;;11.20;89.90;;;;;;9161904;19;20022;-74
2023/11/09 04:51:06;;;;;;;1.08;1.00;;;11.20;89.90;;;;;;9164247;19;20033;-74
2023/11/09 04:54:17;;;;;;;1.70;1.10;;;11.20;89.90;;;;;;9161689;19;20478;-72
2023/11/09 05:07:30;;;;;;;2.38;1.00;;;11.20;90.00;;;;;;9164529;19;20025;-75
2023/11/09 05:10:38;;;;;;;2.30;1.83;;;11.20;89.90;;;;;;9163943;19;20018;-75
2023/11/09 05:13:43;;;;;;;1.15;0.90;;;11.30;90.00;;;;;;9161575;19;20108;-72
2023/11/09 05:16:51;;;;;;;1.15;1.05;;;11.30;90.00;;;;;;9163253;19;20011;-73
2023/11/09 05:19:59;;;;;;;3.05;1.20;;;11.30;90.00;;;;;;9163331;19;20018;-72
2023/11/09 05:23:08;;;;;;;1.27;1.17;;;11.30;90.00;;;;;;9164671;19;20885;-73
2023/11/09 05:26:14;;;;;;;1.20;1.10;;;11.30;90.00;;;;;;9163502;19;20374;-73
2023/11/09 05:29:23;;;;;;;1.50;1.00;;;11.30;90.00;;;;;;9160981;19;20026;-74
2023/11/09 05:32:28;;;;;;;1.30;1.20;;;11.30;90.00;;;;;;9162546;19;20022;-74
2023/11/09 05:35:39;;;;;;;4.15;1.17;;;11.30;90.00;;;;;;9163837;19;20041;-72
2023/11/09 05:38:44;;;;;;;1.08;0.98;;;11.30;90.00;;;;;;9159911;19;20791;-75
2023/11/09 05:41:52;;;;;;;1.25;1.13;;;11.40;90.00;;;;;;9160278;19;20022;-75
2023/11/09 05:44:58;;;;;;;1.58;1.25;;;11.40;90.00;;;;;;9163799;19;20030;-73
2023/11/09 05:48:06;;;;;;;2.03;1.40;;;11.40;90.10;;;;;;9159972;19;20018;-75
2023/11/09 05:51:15;;;;;;;1.30;1.20;;;11.40;90.00;;;;;;9162018;19;20019;-75
2023/11/09 05:54:24;;;;;;;1.73;1.60;;;11.40;90.00;;;;;;9158619;19;20026;-72
2023/11/09 05:57:29;;;;;;;4.93;2.00;;;11.40;90.00;;;;;;9161579;19;20484;-72
2023/11/09 06:00:38;;;;;;;1.70;1.60;;;11.40;90.00;;;;;;9161392;19;20010;-73
2023/11/09 06:03:46;;;;;;;2.10;1.85;;;11.40;90.10;;;;;;9160245;19;20018;-73
2023/11/09 06:06:56;;;;;;;5.97;1.83;;;11.40;90.10;;;;;;9160976;19;20090;-73
2023/11/09 06:10:03;;;;;;;3.30;2.03;;;11.40;90.10;;;;;;9161763;19;20428;-73
2023/11/09 06:13:10;;;;;;;2.15;1.95;;;11.40;90.10;;;;;;9161737;19;20014;-74
2023/11/09 06:16:16;;;;;;;4.97;2.13;;;11.40;90.10;;;;;;9160773;19;20499;-72
2023/11/09 06:19:23;;;;;;;3.45;2.05;;;11.50;90.10;;;;;;9161893;19;20014;-74
2023/11/09 06:22:31;;;;;;;2.33;2.10;;;11.50;90.10;;;;;;9160983;19;20026;-73
2023/11/09 06:25:39;;;;;;;3.58;2.40;;;11.50;90.10;;;;;;9157352;19;20021;-74
2023/11/09 06:28:47;;;;;;;3.45;2.58;;;11.50;90.10;;;;;;9161620;19;20018;-74
2023/11/09 06:31:54;;;;;;;3.95;2.40;;;11.50;90.10;;;;;;9161603;19;20026;-74
2023/11/09 06:35:01;;;;;;;5.10;2.55;;;11.50;90.10;;;;;;9156986;19;20018;-74
2023/11/09 06:38:13;;;;;;;5.30;2.70;;;11.50;90.10;;;;;;9160930;19;20026;-74
2023/11/09 06:41:18;;;;;;;4.05;3.03;;;11.50;90.20;;;;;;9157783;19;20058;-74
2023/11/09 06:44:26;;;;;;;4.40;3.10;;;11.50;90.10;;;;;;9161797;19;20023;-73
2023/11/09 06:47:31;;;;;;;4.03;2.75;;;11.50;90.20;;;;;;9157224;19;20027;-73
2023/11/09 06:50:39;;;;;;;7.20;3.55;;;11.50;90.10;;;;;;9160878;19;20011;-74
2023/11/09 06:53:47;;;;;;;3.42;2.85;;;11.60;90.20;;;;;;9159197;19;20011;-75
2023/11/09 06:56:55;;;;;;;4.93;3.45;;;11.60;90.20;;;;;;9160525;19;20013;-73
2023/11/09 07:00:02;;;;;;;5.35;3.92;;;11.60;90.20;;;;;;9158600;19;20049;-74
2023/11/09 07:03:10;;;;;;;5.47;3.67;;;11.60;90.20;;;;;;9160536;19;20015;-74
2023/11/09 07:06:15;;;;;;;5.72;3.90;;;11.60;90.20;;;;;;9158432;19;20026;-74
2023/11/09 07:09:26;;;;;;;6.57;3.65;;;11.60;90.20;;;;;;9159391;19;20014;-73
2023/11/09 07:12:31;;;;;;;7.38;4.50;;;11.60;90.20;;;;;;9159553;19;20026;-73
2023/11/09 07:15:39;;;;;;;5.07;3.63;;;11.60;90.20;;;;;;9162414;19;20018;-73
2023/11/09 07:18:46;;;;;;;5.78;4.25;;;11.60;90.20;;;;;;9170707;19;20015;-73
2023/11/09 07:21:54;;;;;;;6.55;4.22;;;11.60;90.20;;;;;;9165801;19;20030;-74
2023/11/09 07:25:02;;;;;;;7.22;4.00;;;11.60;90.20;;;;;;9168073;19;21053;-72
2023/11/09 07:28:20;;;;;;;6.38;4.50;;;11.60;90.20;;;;;;9168617;19;20017;-75
2023/11/09 07:31:25;;;;;;;5.82;4.07;;;11.70;90.20;;;;;;9167070;19;20015;-75
2023/11/09 07:34:33;;;;;;;6.10;4.20;;;11.70;90.20;;;;;;9163922;19;20011;-74
2023/11/09 07:37:38;;;;;;;8.23;4.68;;;11.70;90.20;;;;;;9165212;19;20010;-75
2023/11/09 07:40:51;;;;;;;6.00;3.90;;;11.70;90.20;;;;;;9161880;19;20020;-73
2023/11/09 07:43:58;;;;;;;6.28;4.43;;;11.70;90.20;;;;;;9168458;19;20015;-73
2023/11/09 07:47:08;;;;;;;6.40;4.82;;;11.60;90.20;;;;;;9163219;19;20354;-73
2023/11/09 07:50:16;;;;;;;8.13;4.28;;;11.60;90.20;;;;;;9166772;19;20468;-73
2023/11/09 07:53:24;;;;;;;12.60;5.13;;;11.60;90.20;;;;;;9165080;19;20014;-73
2023/11/09 07:56:33;;;;;;;8.02;4.75;;;11.60;90.20;;;;;;9165039;19;20595;-74
2023/11/09 07:59:44;;;;;;;8.63;5.32;;;11.60;90.20;;;;;;9164282;19;20593;-73
2023/11/09 08:02:50;;;;;;;8.25;4.68;;;11.60;90.20;;;;;;9162511;19;20022;-72
2023/11/09 08:05:59;;;;;;;8.57;5.13;;;11.60;90.10;;;;;;9167293;19;20017;-75
2023/11/09 08:09:09;;;;;;;10.48;5.10;;;11.60;90.20;;;;;;9166412;19;20026;-73
2023/11/09 08:12:20;;;;;;;12.50;4.88;;;11.50;90.10;;;;;;9162150;19;20025;-72
2023/11/09 08:15:25;;;;;;;13.02;4.78;;;11.50;90.10;;;;;;9165460;19;20028;-72
2023/11/09 08:18:34;;;;;;;9.07;4.38;;;11.50;90.20;;;;;;9163248;19;20022;-72
2023/11/09 08:21:40;;;;;;;8.60;4.03;;;11.50;90.10;;;;;;9167549;19;20055;-73
2023/11/09 08:24:47;;;;;;;8.63;3.53;;;11.50;90.10;;;;;;9169500;19;20010;-68
2023/11/09 08:27:55;;;;;;;5.53;3.17;;;11.50;90.10;;;;;;9165384;19;20014;-70
2023/11/09 08:31:04;;;;;;;10.75;2.80;;;11.50;90.10;;;;;;9169023;19;20022;-68
2023/11/09 08:34:11;;;;;;;7.10;3.20;;;11.50;90.10;;;;;;9168658;19;20472;-68
2023/11/09 08:37:19;;;;;;;10.30;3.00;;;11.50;90.10;;;;;;9168374;19;20007;-71
2023/11/09 08:40:27;;;;;;;6.88;2.75;;;11.40;90.10;;;;;;9164419;19;20082;-72
2023/11/09 08:43:39;;;;;;;9.07;2.80;;;11.50;90.10;;;;;;9169055;19;20018;-73
2023/11/09 08:46:44;;;;;;;11.45;2.35;;;11.50;90.10;;;;;;9166610;19;20011;-73
2023/11/09 08:49:52;;;;;;;20.33;3.90;;;11.50;90.10;;;;;;9166377;19;20700;-72
2023/11/09 08:53:01;;;;;;;6.25;2.42;;;11.40;90.10;;;;;;9164672;19;20863;-73
2023/11/09 08:56:10;;;;;;;8.52;2.83;;;11.50;90.10;;;;;;9165126;19;20029;-72
2023/11/09 08:59:19;;;;;;;14.00;2.70;;;11.50;90.10;;;;;;9168460;19;20086;-74
2023/11/09 09:02:28;;;;;;;7.80;2.58;;;11.50;90.10;;;;;;9165538;19;20949;-72
2023/11/09 09:05:34;;;;;;;17.27;2.75;;;11.50;90.10;;;;;;9167136;19;20018;-74
2023/11/09 09:08:42;;;;;;;8.45;2.30;;;11.50;90.10;;;;;;9162345;19;20007;-74
2023/11/09 09:11:49;;;;;;;13.50;3.63;;;11.50;90.00;;;;;;9161718;19;20014;-72
2023/11/09 09:15:00;;;;;;;13.00;4.28;;;11.50;90.00;;;;;;9156008;19;20010;-71
2023/11/09 09:18:09;;;;;;;7.60;4.10;;;11.50;90.00;;;;;;9161849;19;20015;-75
2023/11/09 09:21:21;;;;;;;15.27;5.63;;;11.50;90.10;;;;;;9163049;19;20014;-72
2023/11/09 09:24:26;;;;;;;15.93;5.55;;;11.50;90.00;;;;;;9162027;19;20030;-73
2023/11/09 09:27:34;;;;;;;15.48;5.65;;;11.60;90.10;;;;;;9157716;19;20015;-72
2023/11/09 09:30:49;;;;;;;14.35;5.25;;;11.60;90.10;;;;;;9159035;19;20282;-72
2023/11/09 09:34:07;;;;;;;13.38;4.75;;;11.50;90.00;;;;;;9162531;19;20068;-72
2023/11/09 09:37:14;;;;;;;13.15;5.05;;;11.60;90.00;;;;;;9157499;19;20022;-72
2023/11/09 09:40:24;;;;;;;14.82;5.07;;;11.60;90.00;;;;;;9155799;19;20290;-73
2023/11/09 09:43:42;;;;;;;14.32;4.18;;;11.60;90.10;;;;;;9160287;19;20056;-73
2023/11/09 09:46:58;;;;;;;15.02;4.30;;;11.60;90.00;;;;;;9155998;19;20018;-73
2023/11/09 09:50:04;;;;;;;12.07;3.78;;;11.60;90.00;;;;;;9160419;19;20361;-72
2023/11/09 09:53:20;;;;;;;8.85;3.60;;;11.60;90.00;;;;;;9160750;19;20018;-71
2023/11/09 09:56:26;;;;;;;12.20;3.67;;;11.60;90.00;;;;;;9158973;19;20515;-72
2023/11/09 09:59:35;;;;;;;8.13;3.22;;;11.60;89.90;;;;;;9161436;19;20484;-72
2023/11/09 10:02:44;;;;;;;13.07;3.45;;;11.60;89.90;;;;;;9160070;19;20575;-71
2023/11/09 10:05:52;;;;;;;15.50;3.65;;;11.60;89.90;;;;;;9160824;19;20013;-72
2023/11/09 10:08:58;;;;;;;17.52;3.47;;;11.60;89.80;;;;;;9158181;19;20094;-71
2023/11/09 10:15:31;;;;;;;8.60;3.42;;;11.60;89.90;;;;;;9203889;19;20707;-73
2023/11/09 10:18:39;;;;;;;8.60;3.28;;;11.60;89.90;;;;;;9206130;19;20476;-72
2023/11/09 10:21:46;;;;;;;19.15;4.38;;;11.60;89.80;;;;;;9206959;19;20014;-73
2023/11/09 10:24:56;;;;;;;10.82;4.07;;;11.60;90.10;;;;;;9205877;19;20735;-72
2023/11/09 10:28:07;;;;;;;13.07;3.95;;;11.60;89.70;;;;;;9207052;19;20034;-73
2023/11/09 10:31:32;;;;;;;;;;;11.60;89.80;;;;;;9207677;19;20018;-73
2023/11/09 10:34:43;;;;;;;16.50;5.00;;;11.60;89.80;;;;;;9192068;19;20003;-72
2023/11/09 10:37:51;;;;;;;15.88;6.03;;;11.60;89.80;;;;;;9203155;19;20021;-72
2023/11/09 10:40:59;;;;;;;19.38;6.90;;;11.60;89.80;;;;;;9203159;19;20075;-73
2023/11/09 10:44:30;;;;;;;14.65;6.85;;;11.60;89.90;;;;;;9205803;19;20379;-72
2023/11/09 10:47:37;;;;;;;17.40;6.93;;;11.70;90.00;;;;;;9208135;19;20026;-73
2023/11/09 10:50:49;;;;;;;23.60;7.15;;;11.70;90.00;;;;;;9207506;19;20022;-73
2023/11/09 10:53:59;;;;;;;16.15;7.13;;;11.80;90.00;;;;;;9206883;19;20026;-72
2023/11/09 10:57:09;;;;;;;23.58;7.63;;;11.80;90.00;;;;;;9207727;19;20475;-73
2023/11/09 11:00:26;;;;;;;25.52;7.72;;;11.90;90.00;;;;;;9207505;19;20069;-73
2023/11/09 11:03:38;;;;;;;20.98;7.38;;;11.90;90.00;;;;;;9204375;19;20479;-72
2023/11/09 11:06:51;;;;;;;18.73;6.75;;;12.00;90.00;;;;;;9203274;19;20406;-72
2023/11/09 11:10:01;;;;;;;18.02;6.10;;;12.00;90.00;;;;;;9206490;19;20022;-72
2023/11/09 11:13:11;;;;;;;18.88;6.47;;;12.10;90.00;;;;;;9203848;19;20079;-72
2023/11/09 11:16:41;;;;;;;16.13;5.70;;;12.10;89.90;;;;;;9204568;19;20025;-72
2023/11/09 11:20:18;;;;;;;16.33;6.15;;;12.20;89.70;;;;;;9206538;19;20406;-72
2023/11/09 11:24:11;;;;;;;20.92;5.35;;;12.20;89.60;;;;;;9206623;19;20515;-71
2023/11/09 11:27:20;;;;;;;18.33;5.70;;;12.20;89.40;;;;;;9168164;19;20475;-72
2023/11/09 11:30:32;;;;;;;;;;;12.20;89.40;;;;;;9171531;19;20034;-71
2023/11/09 11:33:39;;;;;;;19.70;5.00;;;12.20;89.40;;;;;;9170508;19;19919;-73
2023/11/09 11:36:48;;;;;;;13.77;4.40;;;12.20;89.30;;;;;;9170882;19;20487;-71
2023/11/09 11:39:54;;;;;;;13.00;3.92;;;12.20;89.20;;;;;;9165734;19;20043;-70
2023/11/09 11:43:05;;;;;;;19.00;4.30;;;12.20;89.40;;;;;;9166824;19;20027;-72
2023/11/09 11:46:12;;;;;;;14.02;3.33;;;12.20;88.90;;;;;;9167885;19;20024;-73
2023/11/09 11:49:23;;;;;;;17.83;4.40;;;12.20;88.80;;;;;;9164873;19;20019;-71
2023/11/09 11:52:32;;;;;;;20.88;5.28;;;12.10;88.70;;;;;;9167672;19;20025;-71
2023/11/09 11:55:41;;;;;;;15.45;4.22;;;12.20;88.70;;;;;;9166602;19;20814;-71
2023/11/09 11:58:58;;;;;;;17.08;4.13;;;12.10;88.70;;;;;;9167576;19;20106;-71
2023/11/09 12:02:09;;;;;;;19.45;4.38;;;12.10;88.60;;;;;;9156458;19;20030;-73
2023/11/09 12:05:15;;;;;;;20.08;4.65;;;12.20;88.80;;;;;;9168787;19;20025;-71
2023/11/09 12:08:23;;;;;;;20.77;5.63;;;12.20;88.90;;;;;;9166468;19;20014;-70
2023/11/09 12:11:33;;;;;;;22.17;5.80;;;12.20;88.90;;;;;;9167221;19;20969;-71
2023/11/09 12:14:46;;;;;;;21.55;6.20;;;12.20;88.80;;;;;;9161270;19;20021;-71
2023/11/09 12:17:51;;;;;;;18.63;7.15;;;12.20;88.70;;;;;;9167158;19;22930;-70
2023/11/09 12:20:59;;;;;;;25.58;6.95;;;12.30;88.70;;;;;;9166732;19;20015;-71
2023/11/09 12:24:05;;;;;;;30.27;6.13;;;12.30;88.60;;;;;;9167360;19;20476;-72
2023/11/09 12:27:13;;;;;;;20.30;5.60;;;12.30;88.50;;;;;;9168469;19;20015;-71
2023/11/09 12:30:22;;;;;;;21.13;6.60;;;12.30;88.30;;;;;;9166427;19;20021;-73
2023/11/09 12:33:35;;;;;;;18.50;5.13;;;12.30;88.20;;;;;;9168215;19;20641;-71
2023/11/09 12:36:42;;;;;;;19.20;5.00;;;12.30;88.10;;;;;;9161205;19;20022;-71
2023/11/09 12:39:50;;;;;;;29.13;5.20;;;12.30;88.10;;;;;;9163341;19;20011;-72
2023/11/09 12:42:57;;;;;;;21.88;4.65;;;12.40;88.20;;;;;;9161868;19;20023;-71
2023/11/09 12:46:14;;;;;;;17.23;5.65;;;12.40;88.10;;;;;;9168851;19;20357;-72
2023/11/09 12:49:20;;;;;;;13.60;4.55;;;12.40;88.00;;;;;;9168183;19;20014;-72
2023/11/09 12:52:29;;;;;;;22.63;5.22;;;12.40;87.90;;;;;;9166679;19;20034;-71
2023/11/09 12:55:37;;;;;;;24.48;5.07;;;12.40;87.80;;;;;;9162967;19;20348;-72
2023/11/09 12:58:46;;;;;;;24.92;5.50;;;12.40;87.70;;;;;;9161182;19;20018;-71
2023/11/09 13:01:55;;;;;;;16.30;5.05;;;12.40;87.70;;;;;;9161572;19;20651;-71
2023/11/09 13:05:03;;;;;;;21.75;5.18;;;12.40;87.60;;;;;;9162122;19;20026;-70
2023/11/09 13:08:12;;;;;;;17.70;5.55;;;12.40;87.50;;;;;;9160049;19;20152;-72
2023/11/09 13:11:30;;;;;;;24.73;5.95;;;12.40;87.50;;;;;;9160035;19;20257;-71
2023/11/09 13:14:36;;;;;;;17.63;4.13;;;12.40;87.40;;;;;;9161691;19;20022;-71
2023/11/09 13:17:55;;;;;;;17.70;4.00;;;12.40;87.30;;;;;;9165835;19;20507;-71
2023/11/09 13:21:01;;;;;;;12.82;3.47;;;12.40;87.10;;;;;;9164617;19;20398;-71
2023/11/09 13:24:09;;;;;;;14.48;4.28;;;12.30;87.00;;;;;;9164363;19;20026;-72
2023/11/09 13:27:22;;;;;;;14.88;3.25;;;12.30;86.80;;;;;;9160936;19;20031;-70
2023/11/09 13:30:30;;;;;;;14.30;3.05;;;12.30;86.70;;;;;;9163292;19;20034;-70
2023/11/09 13:33:39;;;;;;;13.07;3.42;;;12.30;86.60;;;;;;9158632;19;20055;-70
2023/11/09 13:36:56;;;;;;;12.70;3.55;;;12.30;86.40;;;;;;9163238;19;20010;-71
2023/11/09 13:40:34;;;;;;;10.77;3.00;;;12.20;86.40;;;;;;9155851;19;20375;-72
2023/11/09 13:43:37;;;;;;;15.15;2.97;;;12.20;86.20;;;;;;9163059;19;20022;-72
2023/11/09 13:46:44;;;;;;;11.35;2.30;;;12.10;86.20;;;;;;9163808;19;20468;-71
2023/11/09 13:49:57;;;;;;;12.98;2.28;;;12.10;86.20;;;;;;9160969;19;20018;-72
2023/11/09 13:53:11;;;;;;;12.30;3.05;;;12.10;86.20;;;;;;9163390;19;20468;-71
2023/11/09 13:59:42;;;;;;;14.15;2.70;;;12.00;86.10;;;;;;9163976;19;20742;-71
2023/11/09 14:02:49;;;;;;;18.80;3.08;;;12.00;86.10;;;;;;9163382;19;20025;-73
2023/11/09 14:05:58;;;;;;;12.90;3.03;;;12.00;86.10;;;;;;9163075;19;20037;-71
2023/11/09 14:09:08;;;;;;;15.60;2.92;;;11.90;85.90;;;;;;9164588;19;20015;-71
2023/11/09 14:12:36;;;;;;;15.55;2.92;;;11.90;85.90;;;;;;9163238;19;20511;-71
2023/11/09 14:15:49;;;;;;;16.05;2.92;;;11.90;85.90;;;;;;9162680;19;20017;-71
2023/11/09 14:18:59;;;;;;;17.73;3.28;;;11.90;86.00;;;;;;9163819;19;20014;-71
2023/11/09 14:22:12;;;;;;;12.55;3.65;;;11.90;86.00;;;;;;9164349;19;20018;-73
2023/11/09 14:25:21;;;;;;;8.52;3.95;;;11.90;86.00;;;;;;9163706;19;20031;-71
2023/11/09 14:28:32;;;;;;;21.55;3.28;;;11.80;85.80;;;;;;9162417;19;20010;-71
2023/11/09 14:31:39;;;;;;;14.77;2.97;;;11.80;85.90;;;;;;9160336;19;20029;-71
2023/11/09 14:34:47;;;;;;;12.95;3.58;;;11.80;85.80;;;;;;9160558;19;20019;-71
2023/11/09 14:37:55;;;;;;;18.15;2.85;;;11.80;85.80;;;;;;9160620;19;20030;-71
2023/11/09 14:41:12;;;;;;;13.68;2.55;;;11.80;85.70;;;;;;9155009;19;20550;-71
2023/11/09 14:44:18;;;;;;;10.43;2.22;;;11.70;85.70;;;;;;9158596;19;20822;-70
2023/11/09 14:47:36;;;;;;;12.88;2.95;;;11.70;85.70;;;;;;9160338;19;20783;-71
2023/11/09 14:50:41;;;;;;;9.70;1.83;;;11.70;85.60;;;;;;9159496;19;20019;-71
2023/11/09 14:53:52;;;;;;;12.73;2.17;;;11.70;85.60;;;;;;9157939;19;20341;-71
2023/11/09 14:56:58;;;;;;;21.63;3.42;;;11.60;85.60;;;;;;9157969;19;20014;-71
2023/11/09 15:00:08;;;;;;;9.73;2.03;;;11.60;85.50;;;;;;9158278;19;20574;-70
2023/11/09 15:03:18;;;;;;;5.47;1.67;;;11.60;85.50;;;;;;9168123;19;20038;-71
2023/11/09 15:06:28;;;;;;;17.80;2.45;;;11.60;85.40;;;;;;9167811;19;20021;-71
2023/11/09 15:09:38;;;;;;;13.60;3.00;;;11.50;85.40;;;;;;9168450;19;20487;-71
2023/11/09 15:12:46;;;;;;;9.48;2.70;;;11.50;85.30;;;;;;9166847;19;20890;-71
2023/11/09 15:15:53;;;;;;;7.70;2.13;;;11.50;85.30;;;;;;9167711;19;20057;-70
2023/11/09 15:19:02;;;;;;;14.80;2.63;;;11.40;85.30;;;;;;9168279;19;20015;-71
2023/11/09 15:22:09;;;;;;;13.52;2.33;;;11.40;85.30;;;;;;9168548;19;20018;-71
2023/11/09 15:25:19;;;;;;;14.15;3.15;;;11.40;85.30;;;;;;9168360;19;20018;-71
2023/11/09 15:28:25;;;;;;;12.25;2.38;;;11.30;85.30;;;;;;9167331;19;20550;-71
2023/11/09 15:31:33;;;;;;;7.70;2.33;;;11.30;85.30;;;;;;9167636;19;20944;-70
2023/11/09 15:34:43;;;;;;;11.63;2.15;;;11.30;85.30;;;;;;9165282;19;20423;-69
2023/11/09 15:37:54;;;;;;;7.95;2.38;;;11.30;85.30;;;;;;9164877;19;20025;-71
2023/11/09 15:41:02;;;;;;;13.75;2.38;;;11.20;85.20;;;;;;9161584;19;20033;-71
2023/11/09 15:44:27;;;;;;;12.18;2.83;;;11.20;85.20;;;;;;9166213;19;20025;-71
2023/11/09 15:47:33;;;;;;;9.68;2.38;;;11.20;85.30;;;;;;9165894;19;20022;-73
2023/11/09 15:50:40;;;;;;;11.25;2.55;;;11.10;85.30;;;;;;9164271;19;20021;-73
2023/11/09 15:53:46;;;;;;;14.32;2.95;;;11.10;85.30;;;;;;9166260;19;20018;-73
2023/11/09 15:56:56;;;;;;;14.35;2.88;;;11.10;85.40;;;;;;9166759;19;20488;-72
2023/11/09 16:00:06;;;;;;;14.63;2.78;;;11.10;85.40;;;;;;9170165;19;20276;-70
2023/11/09 16:03:14;;;;;;;10.63;2.88;;;11.00;85.20;;;;;;9169857;19;20018;-72
2023/11/09 16:06:19;;;;;;;11.68;3.17;;;11.00;85.30;;;;;;9170504;19;20263;-72
2023/11/09 16:09:27;;;;;;;11.80;3.20;;;11.00;85.30;;;;;;9170562;19;20763;-71
2023/11/09 16:12:36;;;;;;;13.32;2.60;;;11.00;85.30;;;;;;9168306;19;20349;-71
2023/11/09 16:15:44;;;;;;;14.82;2.72;;;11.00;85.30;;;;;;9167711;19;20018;-72
2023/11/09 16:18:49;;;;;;;21.75;3.00;;;11.00;85.40;;;;;;9168738;19;20029;-71
2023/11/09 16:21:57;;;;;;;12.07;2.55;;;11.00;85.40;;;;;;9168621;19;20022;-71
2023/11/09 16:25:06;;;;;;;21.90;3.05;;;10.90;85.40;;;;;;9168102;19;20015;-73
2023/11/09 16:28:20;;;;;;;13.45;2.67;;;10.90;86.00;;;;;;9168367;19;20849;-71
2023/11/09 16:31:27;;;;;;;7.90;2.40;;;10.90;85.40;;;;;;9168520;19;20022;-71
2023/11/09 16:34:34;;;;;;;13.85;2.88;;;10.90;85.50;;;;;;9165569;19;20006;-70
2023/11/09 16:37:40;;;;;;;12.75;2.65;;;10.90;85.40;;;;;;9163835;19;20025;-71